sensor_id;sensor_type;location;lat;lon;timestamp;P1;durP1;ratioP1;P2;durP2;ratioP2
13218;SDS011;6674;49.152;11.918;2022-08-19T00:00:49;16.03;;;14.83;;
13218;SDS011;6674;49.152;11.918;2022-08-19T00:03:16;16.17;;;14.87;;
13218;SDS011;6674;49.152;11.918;2022-08-19T00:05:43;17.03;;;15.70;;
13218;SDS011;6674;49.152;11.918;2022-08-19T00:08:09;17.90;;;16.40;;
13218;SDS011;6674;49.152;11.918;2022-08-19T00:10:36;20.17;;;18.57;;
13218;SDS011;6674;49.152;11.918;2022-08-19T00:13:02;16.77;;;15.37;;
13218;SDS011;6674;49.152;11.918;2022-08-19T00:15:31;14.90;;;13.73;;
13218;SDS011;6674;49.152;11.918;2022-08-19T00:17:58;14.80;;;13.70;;
13218;SDS011;6674;49.152;11.918;2022-08-19T00:20:24;18.13;;;16.60;;
13218;SDS011;6674;49.152;11.918;2022-08-19T00:22:51;16.40;;;15.13;;
13218;SDS011;6674;49.152;11.918;2022-08-19T00:25:19;15.30;;;13.93;;
13218;SDS011;6674;49.152;11.918;2022-08-19T00:27:46;15.93;;;14.63;;
13218;SDS011;6674;49.152;11.918;2022-08-19T00:30:13;17.90;;;16.50;;
13218;SDS011;6674;49.152;11.918;2022-08-19T00:32:41;16.30;;;15.00;;
13218;SDS011;6674;49.152;11.918;2022-08-19T00:35:09;12.30;;;11.40;;
13218;SDS011;6674;49.152;11.918;2022-08-19T00:37:36;12.63;;;11.63;;
13218;SDS011;6674;49.152;11.918;2022-08-19T00:40:09;14.67;;;13.57;;
13218;SDS011;6674;49.152;11.918;2022-08-19T00:42:37;13.30;;;12.30;;
13218;SDS011;6674;49.152;11.918;2022-08-19T00:45:05;17.73;;;16.33;;
13218;SDS011;6674;49.152;11.918;2022-08-19T00:47:36;14.10;;;13.00;;
13218;SDS011;6674;49.152;11.918;2022-08-19T00:50:05;13.47;;;12.37;;
13218;SDS011;6674;49.152;11.918;2022-08-19T00:52:35;11.73;;;10.87;;
13218;SDS011;6674;49.152;11.918;2022-08-19T00:55:05;13.33;;;12.23;;
13218;SDS011;6674;49.152;11.918;2022-08-19T00:57:39;13.17;;;12.13;;
13218;SDS011;6674;49.152;11.918;2022-08-19T01:00:12;14.67;;;13.50;;
13218;SDS011;6674;49.152;11.918;2022-08-19T01:02:42;12.27;;;11.37;;
13218;SDS011;6674;49.152;11.918;2022-08-19T01:05:12;13.67;;;12.60;;
13218;SDS011;6674;49.152;11.918;2022-08-19T01:07:43;13.00;;;12.00;;
13218;SDS011;6674;49.152;11.918;2022-08-19T01:10:12;13.90;;;12.80;;
13218;SDS011;6674;49.152;11.918;2022-08-19T01:12:40;13.30;;;12.30;;
13218;SDS011;6674;49.152;11.918;2022-08-19T01:15:08;11.13;;;10.33;;
13218;SDS011;6674;49.152;11.918;2022-08-19T01:17:36;13.67;;;12.67;;
13218;SDS011;6674;49.152;11.918;2022-08-19T01:20:04;11.23;;;10.33;;
13218;SDS011;6674;49.152;11.918;2022-08-19T01:22:37;10.37;;;9.57;;
13218;SDS011;6674;49.152;11.918;2022-08-19T01:25:09;8.23;;;7.70;;
13218;SDS011;6674;49.152;11.918;2022-08-19T01:27:39;9.13;;;8.43;;
13218;SDS011;6674;49.152;11.918;2022-08-19T01:30:08;9.83;;;8.97;;
13218;SDS011;6674;49.152;11.918;2022-08-19T01:32:36;9.37;;;8.67;;
13218;SDS011;6674;49.152;11.918;2022-08-19T01:35:04;10.57;;;9.67;;
13218;SDS011;6674;49.152;11.918;2022-08-19T01:37:42;12.60;;;11.60;;
13218;SDS011;6674;49.152;11.918;2022-08-19T01:40:10;11.97;;;11.07;;
13218;SDS011;6674;49.152;11.918;2022-08-19T01:42:37;10.77;;;9.97;;
13218;SDS011;6674;49.152;11.918;2022-08-19T01:45:04;10.50;;;9.70;;
13218;SDS011;6674;49.152;11.918;2022-08-19T01:47:33;11.00;;;10.10;;
13218;SDS011;6674;49.152;11.918;2022-08-19T01:50:00;10.10;;;9.37;;
13218;SDS011;6674;49.152;11.918;2022-08-19T01:52:27;12.57;;;11.60;;
13218;SDS011;6674;49.152;11.918;2022-08-19T01:54:57;11.43;;;10.53;;
13218;SDS011;6674;49.152;11.918;2022-08-19T01:57:24;10.50;;;9.70;;
13218;SDS011;6674;49.152;11.918;2022-08-19T01:59:50;10.93;;;10.13;;
13218;SDS011;6674;49.152;11.918;2022-08-19T02:02:18;13.60;;;12.50;;
13218;SDS011;6674;49.152;11.918;2022-08-19T02:04:45;13.97;;;12.83;;
13218;SDS011;6674;49.152;11.918;2022-08-19T02:07:12;11.43;;;10.53;;
13218;SDS011;6674;49.152;11.918;2022-08-19T02:09:39;12.60;;;11.70;;
13218;SDS011;6674;49.152;11.918;2022-08-19T02:12:07;11.83;;;10.93;;
13218;SDS011;6674;49.152;11.918;2022-08-19T02:14:34;11.37;;;10.47;;
13218;SDS011;6674;49.152;11.918;2022-08-19T02:17:01;12.00;;;11.10;;
13218;SDS011;6674;49.152;11.918;2022-08-19T02:19:28;12.97;;;11.97;;
13218;SDS011;6674;49.152;11.918;2022-08-19T02:21:57;11.83;;;10.93;;
13218;SDS011;6674;49.152;11.918;2022-08-19T02:24:24;11.97;;;11.07;;
13218;SDS011;6674;49.152;11.918;2022-08-19T02:26:51;10.77;;;9.97;;
13218;SDS011;6674;49.152;11.918;2022-08-19T02:29:19;12.00;;;11.00;;
13218;SDS011;6674;49.152;11.918;2022-08-19T02:31:46;10.93;;;10.03;;
13218;SDS011;6674;49.152;11.918;2022-08-19T02:34:13;13.80;;;12.80;;
13218;SDS011;6674;49.152;11.918;2022-08-19T02:36:39;10.90;;;10.00;;
13218;SDS011;6674;49.152;11.918;2022-08-19T02:39:06;11.93;;;11.03;;
13218;SDS011;6674;49.152;11.918;2022-08-19T02:41:32;13.30;;;12.20;;
13218;SDS011;6674;49.152;11.918;2022-08-19T02:43:59;11.77;;;10.87;;
13218;SDS011;6674;49.152;11.918;2022-08-19T02:46:30;14.87;;;13.63;;
13218;SDS011;6674;49.152;11.918;2022-08-19T02:48:59;13.30;;;12.30;;
13218;SDS011;6674;49.152;11.918;2022-08-19T02:51:31;11.93;;;11.03;;
13218;SDS011;6674;49.152;11.918;2022-08-19T02:54:00;14.60;;;13.53;;
13218;SDS011;6674;49.152;11.918;2022-08-19T02:56:27;11.43;;;10.53;;
13218;SDS011;6674;49.152;11.918;2022-08-19T02:58:55;15.27;;;14.17;;
13218;SDS011;6674;49.152;11.918;2022-08-19T03:01:26;14.70;;;13.50;;
13218;SDS011;6674;49.152;11.918;2022-08-19T03:03:57;15.67;;;14.47;;
13218;SDS011;6674;49.152;11.918;2022-08-19T03:06:25;17.70;;;16.30;;
13218;SDS011;6674;49.152;11.918;2022-08-19T03:08:53;11.17;;;10.37;;
13218;SDS011;6674;49.152;11.918;2022-08-19T03:11:21;10.50;;;9.80;;
13218;SDS011;6674;49.152;11.918;2022-08-19T03:13:50;15.10;;;14.00;;
13218;SDS011;6674;49.152;11.918;2022-08-19T03:16:17;12.67;;;11.77;;
13218;SDS011;6674;49.152;11.918;2022-08-19T03:18:44;10.77;;;9.93;;
13218;SDS011;6674;49.152;11.918;2022-08-19T03:21:15;12.73;;;11.73;;
13218;SDS011;6674;49.152;11.918;2022-08-19T03:23:43;15.63;;;14.43;;
13218;SDS011;6674;49.152;11.918;2022-08-19T03:26:10;13.27;;;12.20;;
13218;SDS011;6674;49.152;11.918;2022-08-19T03:28:36;11.40;;;10.53;;
13218;SDS011;6674;49.152;11.918;2022-08-19T03:31:04;10.97;;;10.10;;
13218;SDS011;6674;49.152;11.918;2022-08-19T03:33:34;12.43;;;11.53;;
13218;SDS011;6674;49.152;11.918;2022-08-19T03:36:08;12.87;;;11.87;;
13218;SDS011;6674;49.152;11.918;2022-08-19T03:38:38;11.63;;;10.80;;
13218;SDS011;6674;49.152;11.918;2022-08-19T03:41:07;13.23;;;12.27;;
13218;SDS011;6674;49.152;11.918;2022-08-19T03:43:36;13.47;;;12.37;;
13218;SDS011;6674;49.152;11.918;2022-08-19T03:46:05;13.80;;;12.80;;
13218;SDS011;6674;49.152;11.918;2022-08-19T03:48:40;13.00;;;12.00;;
13218;SDS011;6674;49.152;11.918;2022-08-19T03:51:07;10.33;;;9.53;;
13218;SDS011;6674;49.152;11.918;2022-08-19T03:53:41;10.23;;;9.53;;
13218;SDS011;6674;49.152;11.918;2022-08-19T03:56:08;10.30;;;9.50;;
13218;SDS011;6674;49.152;11.918;2022-08-19T03:58:35;9.00;;;8.30;;
13218;SDS011;6674;49.152;11.918;2022-08-19T04:01:06;9.43;;;8.73;;
13218;SDS011;6674;49.152;11.918;2022-08-19T04:03:35;11.27;;;10.47;;
13218;SDS011;6674;49.152;11.918;2022-08-19T04:06:09;10.33;;;9.53;;
13218;SDS011;6674;49.152;11.918;2022-08-19T04:08:37;10.47;;;9.67;;
13218;SDS011;6674;49.152;11.918;2022-08-19T04:11:07;10.73;;;9.93;;
13218;SDS011;6674;49.152;11.918;2022-08-19T04:13:35;10.80;;;10.00;;
13218;SDS011;6674;49.152;11.918;2022-08-19T04:16:01;11.07;;;10.17;;
13218;SDS011;6674;49.152;11.918;2022-08-19T04:18:29;9.30;;;8.60;;
13218;SDS011;6674;49.152;11.918;2022-08-19T04:20:56;8.23;;;7.63;;
13218;SDS011;6674;49.152;11.918;2022-08-19T04:23:23;10.07;;;9.37;;
13218;SDS011;6674;49.152;11.918;2022-08-19T04:25:49;9.70;;;8.90;;
13218;SDS011;6674;49.152;11.918;2022-08-19T04:28:17;8.77;;;8.10;;
13218;SDS011;6674;49.152;11.918;2022-08-19T04:30:45;9.07;;;8.37;;
13218;SDS011;6674;49.152;11.918;2022-08-19T04:33:14;8.40;;;7.80;;
13218;SDS011;6674;49.152;11.918;2022-08-19T04:35:42;9.17;;;8.47;;
13218;SDS011;6674;49.152;11.918;2022-08-19T04:38:10;10.97;;;10.17;;
13218;SDS011;6674;49.152;11.918;2022-08-19T04:40:39;10.90;;;10.00;;
13218;SDS011;6674;49.152;11.918;2022-08-19T04:43:25;9.83;;;9.13;;
13218;SDS011;6674;49.152;11.918;2022-08-19T04:45:52;9.37;;;8.67;;
13218;SDS011;6674;49.152;11.918;2022-08-19T04:48:19;9.73;;;8.93;;
13218;SDS011;6674;49.152;11.918;2022-08-19T04:50:51;10.93;;;10.10;;
13218;SDS011;6674;49.152;11.918;2022-08-19T04:53:22;11.27;;;10.43;;
13218;SDS011;6674;49.152;11.918;2022-08-19T04:55:49;9.30;;;8.63;;
13218;SDS011;6674;49.152;11.918;2022-08-19T04:58:16;10.00;;;9.20;;
13218;SDS011;6674;49.152;11.918;2022-08-19T05:00:44;11.40;;;10.60;;
13218;SDS011;6674;49.152;11.918;2022-08-19T05:03:10;10.53;;;9.73;;
13218;SDS011;6674;49.152;11.918;2022-08-19T05:05:38;11.33;;;10.53;;
13218;SDS011;6674;49.152;11.918;2022-08-19T05:08:06;9.30;;;8.70;;
13218;SDS011;6674;49.152;11.918;2022-08-19T05:10:34;11.20;;;10.27;;
13218;SDS011;6674;49.152;11.918;2022-08-19T05:13:01;11.30;;;10.50;;
13218;SDS011;6674;49.152;11.918;2022-08-19T05:15:28;11.47;;;10.67;;
13218;SDS011;6674;49.152;11.918;2022-08-19T05:17:56;9.60;;;8.90;;
13218;SDS011;6674;49.152;11.918;2022-08-19T05:20:40;10.30;;;9.60;;
13218;SDS011;6674;49.152;11.918;2022-08-19T05:23:24;13.27;;;12.27;;
13218;SDS011;6674;49.152;11.918;2022-08-19T05:25:51;10.10;;;9.40;;
13218;SDS011;6674;49.152;11.918;2022-08-19T05:28:18;12.33;;;11.37;;
13218;SDS011;6674;49.152;11.918;2022-08-19T05:30:45;12.03;;;11.13;;
13218;SDS011;6674;49.152;11.918;2022-08-19T05:33:16;12.43;;;11.43;;
13218;SDS011;6674;49.152;11.918;2022-08-19T05:35:43;10.70;;;10.00;;
13218;SDS011;6674;49.152;11.918;2022-08-19T05:38:11;12.47;;;11.47;;
13218;SDS011;6674;49.152;11.918;2022-08-19T05:40:38;13.17;;;12.17;;
13218;SDS011;6674;49.152;11.918;2022-08-19T05:43:06;12.27;;;11.27;;
13218;SDS011;6674;49.152;11.918;2022-08-19T05:45:37;11.77;;;10.97;;
13218;SDS011;6674;49.152;11.918;2022-08-19T05:48:04;13.33;;;12.33;;
13218;SDS011;6674;49.152;11.918;2022-08-19T05:50:34;12.90;;;12.00;;
13218;SDS011;6674;49.152;11.918;2022-08-19T05:53:02;14.00;;;13.00;;
13218;SDS011;6674;49.152;11.918;2022-08-19T05:55:28;14.50;;;13.40;;
13218;SDS011;6674;49.152;11.918;2022-08-19T05:57:55;13.77;;;12.77;;
13218;SDS011;6674;49.152;11.918;2022-08-19T06:00:22;14.67;;;13.57;;
13218;SDS011;6674;49.152;11.918;2022-08-19T06:02:49;12.57;;;11.67;;
13218;SDS011;6674;49.152;11.918;2022-08-19T06:05:16;10.53;;;9.73;;
13218;SDS011;6674;49.152;11.918;2022-08-19T06:07:44;12.03;;;11.13;;
13218;SDS011;6674;49.152;11.918;2022-08-19T06:10:11;10.67;;;9.87;;
13218;SDS011;6674;49.152;11.918;2022-08-19T06:12:37;11.03;;;10.13;;
13218;SDS011;6674;49.152;11.918;2022-08-19T06:15:05;11.90;;;11.00;;
13218;SDS011;6674;49.152;11.918;2022-08-19T06:17:34;10.97;;;10.07;;
13218;SDS011;6674;49.152;11.918;2022-08-19T06:20:00;10.40;;;9.70;;
13218;SDS011;6674;49.152;11.918;2022-08-19T06:22:27;8.87;;;8.17;;
13218;SDS011;6674;49.152;11.918;2022-08-19T06:24:56;9.97;;;9.17;;
13218;SDS011;6674;49.152;11.918;2022-08-19T06:27:22;9.90;;;9.20;;
13218;SDS011;6674;49.152;11.918;2022-08-19T06:29:49;10.83;;;9.93;;
13218;SDS011;6674;49.152;11.918;2022-08-19T06:32:16;11.03;;;10.23;;
13218;SDS011;6674;49.152;11.918;2022-08-19T06:34:43;9.93;;;9.13;;
13218;SDS011;6674;49.152;11.918;2022-08-19T06:37:10;14.97;;;13.77;;
13218;SDS011;6674;49.152;11.918;2022-08-19T06:39:38;14.03;;;13.03;;
13218;SDS011;6674;49.152;11.918;2022-08-19T06:42:07;13.97;;;12.93;;
13218;SDS011;6674;49.152;11.918;2022-08-19T06:44:36;11.17;;;10.37;;
13218;SDS011;6674;49.152;11.918;2022-08-19T06:47:06;10.60;;;9.80;;
13218;SDS011;6674;49.152;11.918;2022-08-19T06:49:34;11.93;;;11.03;;
13218;SDS011;6674;49.152;11.918;2022-08-19T06:52:02;9.50;;;8.80;;
13218;SDS011;6674;49.152;11.918;2022-08-19T06:54:29;8.47;;;7.77;;
13218;SDS011;6674;49.152;11.918;2022-08-19T06:56:56;9.43;;;8.73;;
13218;SDS011;6674;49.152;11.918;2022-08-19T06:59:24;8.77;;;8.17;;
13218;SDS011;6674;49.152;11.918;2022-08-19T07:01:53;14.40;;;13.03;;
13218;SDS011;6674;49.152;11.918;2022-08-19T07:04:21;10.70;;;9.90;;
13218;SDS011;6674;49.152;11.918;2022-08-19T07:06:49;13.77;;;12.77;;
13218;SDS011;6674;49.152;11.918;2022-08-19T07:09:18;12.40;;;11.40;;
13218;SDS011;6674;49.152;11.918;2022-08-19T07:11:45;12.37;;;11.37;;
13218;SDS011;6674;49.152;11.918;2022-08-19T07:14:12;13.80;;;12.70;;
13218;SDS011;6674;49.152;11.918;2022-08-19T07:16:42;13.07;;;12.07;;
13218;SDS011;6674;49.152;11.918;2022-08-19T07:19:10;11.17;;;10.37;;
13218;SDS011;6674;49.152;11.918;2022-08-19T07:21:36;12.73;;;11.63;;
13218;SDS011;6674;49.152;11.918;2022-08-19T07:24:03;13.67;;;12.53;;
13218;SDS011;6674;49.152;11.918;2022-08-19T07:26:31;13.50;;;12.40;;
13218;SDS011;6674;49.152;11.918;2022-08-19T07:28:59;13.00;;;11.90;;
13218;SDS011;6674;49.152;11.918;2022-08-19T07:31:27;13.30;;;12.30;;
13218;SDS011;6674;49.152;11.918;2022-08-19T07:33:55;15.97;;;14.67;;
13218;SDS011;6674;49.152;11.918;2022-08-19T07:36:23;13.67;;;12.57;;
13218;SDS011;6674;49.152;11.918;2022-08-19T07:38:53;11.97;;;11.00;;
13218;SDS011;6674;49.152;11.918;2022-08-19T07:41:22;12.67;;;11.67;;
13218;SDS011;6674;49.152;11.918;2022-08-19T07:43:50;14.63;;;13.43;;
13218;SDS011;6674;49.152;11.918;2022-08-19T07:46:19;12.27;;;11.27;;
13218;SDS011;6674;49.152;11.918;2022-08-19T07:48:47;12.93;;;11.93;;
13218;SDS011;6674;49.152;11.918;2022-08-19T07:51:18;10.07;;;9.37;;
13218;SDS011;6674;49.152;11.918;2022-08-19T07:53:47;11.80;;;10.90;;
13218;SDS011;6674;49.152;11.918;2022-08-19T07:56:16;10.73;;;9.93;;
13218;SDS011;6674;49.152;11.918;2022-08-19T07:58:44;13.13;;;12.13;;
13218;SDS011;6674;49.152;11.918;2022-08-19T08:01:13;12.63;;;11.73;;
13218;SDS011;6674;49.152;11.918;2022-08-19T08:03:41;9.83;;;9.03;;
13218;SDS011;6674;49.152;11.918;2022-08-19T08:06:27;8.43;;;7.73;;
13218;SDS011;6674;49.152;11.918;2022-08-19T08:09:13;9.07;;;8.27;;
13218;SDS011;6674;49.152;11.918;2022-08-19T08:11:48;8.67;;;7.97;;
13218;SDS011;6674;49.152;11.918;2022-08-19T08:14:18;11.73;;;10.83;;
13218;SDS011;6674;49.152;11.918;2022-08-19T08:16:47;13.77;;;12.67;;
13218;SDS011;6674;49.152;11.918;2022-08-19T08:19:16;11.70;;;10.80;;
13218;SDS011;6674;49.152;11.918;2022-08-19T08:21:47;11.20;;;10.30;;
13218;SDS011;6674;49.152;11.918;2022-08-19T08:24:17;10.93;;;10.13;;
13218;SDS011;6674;49.152;11.918;2022-08-19T08:26:45;10.30;;;9.57;;
13218;SDS011;6674;49.152;11.918;2022-08-19T08:29:12;10.37;;;9.57;;
13218;SDS011;6674;49.152;11.918;2022-08-19T08:31:40;15.27;;;14.07;;
13218;SDS011;6674;49.152;11.918;2022-08-19T08:34:09;12.83;;;11.73;;
13218;SDS011;6674;49.152;11.918;2022-08-19T08:36:37;11.47;;;10.57;;
13218;SDS011;6674;49.152;11.918;2022-08-19T08:39:07;10.40;;;9.60;;
13218;SDS011;6674;49.152;11.918;2022-08-19T08:41:37;13.63;;;12.47;;
13218;SDS011;6674;49.152;11.918;2022-08-19T08:44:11;11.53;;;10.63;;
13218;SDS011;6674;49.152;11.918;2022-08-19T08:46:43;13.10;;;12.10;;
13218;SDS011;6674;49.152;11.918;2022-08-19T08:49:17;13.60;;;12.40;;
13218;SDS011;6674;49.152;11.918;2022-08-19T08:52:00;16.30;;;15.00;;
13218;SDS011;6674;49.152;11.918;2022-08-19T08:54:32;15.67;;;14.40;;
13218;SDS011;6674;49.152;11.918;2022-08-19T08:57:03;15.37;;;14.07;;
13218;SDS011;6674;49.152;11.918;2022-08-19T08:59:34;15.50;;;14.30;;
13218;SDS011;6674;49.152;11.918;2022-08-19T09:02:03;10.87;;;10.07;;
13218;SDS011;6674;49.152;11.918;2022-08-19T09:04:33;13.80;;;12.63;;
13218;SDS011;6674;49.152;11.918;2022-08-19T09:07:04;12.93;;;11.83;;
13218;SDS011;6674;49.152;11.918;2022-08-19T09:09:45;12.70;;;11.80;;
13218;SDS011;6674;49.152;11.918;2022-08-19T09:12:15;13.63;;;12.50;;
13218;SDS011;6674;49.152;11.918;2022-08-19T09:14:51;13.77;;;12.63;;
13218;SDS011;6674;49.152;11.918;2022-08-19T09:17:20;14.47;;;13.30;;
13218;SDS011;6674;49.152;11.918;2022-08-19T09:19:56;16.00;;;14.70;;
13218;SDS011;6674;49.152;11.918;2022-08-19T09:22:27;15.10;;;13.87;;
13218;SDS011;6674;49.152;11.918;2022-08-19T09:24:54;12.80;;;11.70;;
13218;SDS011;6674;49.152;11.918;2022-08-19T09:27:22;12.90;;;11.90;;
13218;SDS011;6674;49.152;11.918;2022-08-19T09:29:50;13.77;;;12.67;;
13218;SDS011;6674;49.152;11.918;2022-08-19T09:32:17;12.83;;;11.80;;
13218;SDS011;6674;49.152;11.918;2022-08-19T09:34:44;12.63;;;11.63;;
13218;SDS011;6674;49.152;11.918;2022-08-19T09:37:10;14.50;;;13.30;;
13218;SDS011;6674;49.152;11.918;2022-08-19T09:39:37;13.00;;;12.00;;
13218;SDS011;6674;49.152;11.918;2022-08-19T09:42:07;12.50;;;11.50;;
13218;SDS011;6674;49.152;11.918;2022-08-19T09:44:37;12.83;;;11.77;;
13218;SDS011;6674;49.152;11.918;2022-08-19T09:47:04;12.43;;;11.50;;
13218;SDS011;6674;49.152;11.918;2022-08-19T09:49:31;10.03;;;9.23;;
13218;SDS011;6674;49.152;11.918;2022-08-19T09:51:57;11.00;;;10.10;;
13218;SDS011;6674;49.152;11.918;2022-08-19T09:54:24;11.77;;;10.87;;
13218;SDS011;6674;49.152;11.918;2022-08-19T09:56:53;9.50;;;8.70;;
13218;SDS011;6674;49.152;11.918;2022-08-19T09:59:22;9.30;;;8.60;;
13218;SDS011;6674;49.152;11.918;2022-08-19T10:01:48;10.27;;;9.37;;
13218;SDS011;6674;49.152;11.918;2022-08-19T10:04:16;9.77;;;9.07;;
13218;SDS011;6674;49.152;11.918;2022-08-19T10:06:42;10.33;;;9.53;;
13218;SDS011;6674;49.152;11.918;2022-08-19T10:09:08;10.93;;;10.03;;
13218;SDS011;6674;49.152;11.918;2022-08-19T10:11:36;11.10;;;10.27;;
13218;SDS011;6674;49.152;11.918;2022-08-19T10:14:07;12.27;;;11.37;;
13218;SDS011;6674;49.152;11.918;2022-08-19T10:16:36;11.03;;;10.23;;
13218;SDS011;6674;49.152;11.918;2022-08-19T10:19:04;11.87;;;10.97;;
13218;SDS011;6674;49.152;11.918;2022-08-19T10:21:32;11.33;;;10.43;;
13218;SDS011;6674;49.152;11.918;2022-08-19T10:24:01;11.23;;;10.43;;
13218;SDS011;6674;49.152;11.918;2022-08-19T10:26:32;12.23;;;11.33;;
13218;SDS011;6674;49.152;11.918;2022-08-19T10:29:04;10.83;;;10.03;;
13218;SDS011;6674;49.152;11.918;2022-08-19T10:31:33;9.37;;;8.67;;
13218;SDS011;6674;49.152;11.918;2022-08-19T10:34:02;9.10;;;8.40;;
13218;SDS011;6674;49.152;11.918;2022-08-19T10:36:30;10.47;;;9.70;;
13218;SDS011;6674;49.152;11.918;2022-08-19T10:39:01;9.80;;;9.10;;
13218;SDS011;6674;49.152;11.918;2022-08-19T10:41:31;10.13;;;9.40;;
13218;SDS011;6674;49.152;11.918;2022-08-19T10:44:00;10.67;;;9.87;;
13218;SDS011;6674;49.152;11.918;2022-08-19T10:46:28;10.50;;;9.73;;
13218;SDS011;6674;49.152;11.918;2022-08-19T10:48:56;12.67;;;11.77;;
13218;SDS011;6674;49.152;11.918;2022-08-19T10:51:24;13.43;;;12.33;;
13218;SDS011;6674;49.152;11.918;2022-08-19T10:54:09;13.10;;;12.07;;
13218;SDS011;6674;49.152;11.918;2022-08-19T10:56:38;11.67;;;10.77;;
13218;SDS011;6674;49.152;11.918;2022-08-19T10:59:21;12.60;;;11.60;;
13218;SDS011;6674;49.152;11.918;2022-08-19T11:01:49;12.70;;;11.70;;
13218;SDS011;6674;49.152;11.918;2022-08-19T11:04:17;11.17;;;10.33;;
13218;SDS011;6674;49.152;11.918;2022-08-19T11:06:47;9.73;;;9.00;;
13218;SDS011;6674;49.152;11.918;2022-08-19T11:09:15;9.13;;;8.43;;
13218;SDS011;6674;49.152;11.918;2022-08-19T11:11:43;9.07;;;8.40;;
13218;SDS011;6674;49.152;11.918;2022-08-19T11:14:10;9.00;;;8.30;;
13218;SDS011;6674;49.152;11.918;2022-08-19T11:16:39;9.53;;;8.83;;
13218;SDS011;6674;49.152;11.918;2022-08-19T11:19:06;11.23;;;10.33;;
13218;SDS011;6674;49.152;11.918;2022-08-19T11:21:35;10.27;;;9.47;;
13218;SDS011;6674;49.152;11.918;2022-08-19T11:24:07;10.57;;;9.77;;
13218;SDS011;6674;49.152;11.918;2022-08-19T11:26:35;9.30;;;8.67;;
13218;SDS011;6674;49.152;11.918;2022-08-19T11:29:03;9.13;;;8.43;;
13218;SDS011;6674;49.152;11.918;2022-08-19T11:31:31;9.73;;;9.03;;
13218;SDS011;6674;49.152;11.918;2022-08-19T11:34:01;9.30;;;8.60;;
13218;SDS011;6674;49.152;11.918;2022-08-19T11:36:31;8.80;;;8.20;;
13218;SDS011;6674;49.152;11.918;2022-08-19T11:38:58;8.40;;;7.80;;
13218;SDS011;6674;49.152;11.918;2022-08-19T11:41:26;9.60;;;8.80;;
13218;SDS011;6674;49.152;11.918;2022-08-19T11:43:53;8.90;;;8.20;;
13218;SDS011;6674;49.152;11.918;2022-08-19T11:46:21;9.63;;;8.93;;
13218;SDS011;6674;49.152;11.918;2022-08-19T11:48:50;8.13;;;7.50;;
13218;SDS011;6674;49.152;11.918;2022-08-19T11:51:18;8.50;;;7.70;;
13218;SDS011;6674;49.152;11.918;2022-08-19T11:53:47;8.57;;;7.87;;
13218;SDS011;6674;49.152;11.918;2022-08-19T11:56:14;9.23;;;8.47;;
13218;SDS011;6674;49.152;11.918;2022-08-19T11:58:42;7.40;;;6.90;;
13218;SDS011;6674;49.152;11.918;2022-08-19T12:01:09;8.50;;;7.90;;
13218;SDS011;6674;49.152;11.918;2022-08-19T12:03:43;9.30;;;8.60;;
13218;SDS011;6674;49.152;11.918;2022-08-19T12:06:12;8.13;;;7.53;;
13218;SDS011;6674;49.152;11.918;2022-08-19T12:08:40;8.37;;;7.73;;
13218;SDS011;6674;49.152;11.918;2022-08-19T12:11:07;9.00;;;8.30;;
13218;SDS011;6674;49.152;11.918;2022-08-19T12:13:34;9.00;;;8.30;;
13218;SDS011;6674;49.152;11.918;2022-08-19T12:16:02;8.83;;;8.13;;
13218;SDS011;6674;49.152;11.918;2022-08-19T12:18:34;9.27;;;8.50;;
13218;SDS011;6674;49.152;11.918;2022-08-19T12:21:03;8.67;;;7.97;;
13218;SDS011;6674;49.152;11.918;2022-08-19T12:23:30;9.30;;;8.60;;
13218;SDS011;6674;49.152;11.918;2022-08-19T12:25:56;8.80;;;8.20;;
13218;SDS011;6674;49.152;11.918;2022-08-19T12:28:24;9.17;;;8.47;;
13218;SDS011;6674;49.152;11.918;2022-08-19T12:30:51;8.63;;;8.03;;
13218;SDS011;6674;49.152;11.918;2022-08-19T12:33:19;8.50;;;7.90;;
13218;SDS011;6674;49.152;11.918;2022-08-19T12:35:49;8.77;;;8.07;;
13218;SDS011;6674;49.152;11.918;2022-08-19T12:38:16;9.33;;;8.57;;
13218;SDS011;6674;49.152;11.918;2022-08-19T12:40:45;8.80;;;8.10;;
13218;SDS011;6674;49.152;11.918;2022-08-19T12:43:14;9.73;;;9.03;;
13218;SDS011;6674;49.152;11.918;2022-08-19T12:45:42;9.80;;;9.10;;
13218;SDS011;6674;49.152;11.918;2022-08-19T12:48:10;8.87;;;8.17;;
13218;SDS011;6674;49.152;11.918;2022-08-19T12:50:39;9.40;;;8.67;;
13218;SDS011;6674;49.152;11.918;2022-08-19T12:53:06;9.60;;;8.83;;
13218;SDS011;6674;49.152;11.918;2022-08-19T12:55:33;9.43;;;8.73;;
13218;SDS011;6674;49.152;11.918;2022-08-19T12:58:00;8.33;;;7.73;;
13218;SDS011;6674;49.152;11.918;2022-08-19T13:00:27;9.67;;;8.97;;
13218;SDS011;6674;49.152;11.918;2022-08-19T13:02:56;8.30;;;7.60;;
13218;SDS011;6674;49.152;11.918;2022-08-19T13:05:24;9.53;;;8.83;;
13218;SDS011;6674;49.152;11.918;2022-08-19T13:07:57;7.43;;;6.83;;
13218;SDS011;6674;49.152;11.918;2022-08-19T13:10:31;9.70;;;9.00;;
13218;SDS011;6674;49.152;11.918;2022-08-19T13:13:00;9.67;;;8.97;;
13218;SDS011;6674;49.152;11.918;2022-08-19T13:15:28;10.73;;;9.93;;
13218;SDS011;6674;49.152;11.918;2022-08-19T13:17:56;10.30;;;9.50;;
13218;SDS011;6674;49.152;11.918;2022-08-19T13:20:23;8.60;;;8.00;;
13218;SDS011;6674;49.152;11.918;2022-08-19T13:22:51;9.47;;;8.67;;
13218;SDS011;6674;49.152;11.918;2022-08-19T13:25:19;9.50;;;8.80;;
13218;SDS011;6674;49.152;11.918;2022-08-19T13:27:47;10.97;;;10.03;;
13218;SDS011;6674;49.152;11.918;2022-08-19T13:30:16;9.00;;;8.20;;
13218;SDS011;6674;49.152;11.918;2022-08-19T13:33:07;7.57;;;7.07;;
13218;SDS011;6674;49.152;11.918;2022-08-19T13:35:39;9.00;;;8.40;;
13218;SDS011;6674;49.152;11.918;2022-08-19T13:38:09;8.80;;;8.13;;
13218;SDS011;6674;49.152;11.918;2022-08-19T13:40:37;9.60;;;8.80;;
13218;SDS011;6674;49.152;11.918;2022-08-19T13:43:04;8.97;;;8.37;;
13218;SDS011;6674;49.152;11.918;2022-08-19T13:45:32;7.83;;;7.23;;
13218;SDS011;6674;49.152;11.918;2022-08-19T13:48:00;10.17;;;9.37;;
13218;SDS011;6674;49.152;11.918;2022-08-19T13:50:31;9.20;;;8.50;;
13218;SDS011;6674;49.152;11.918;2022-08-19T13:53:01;8.50;;;7.90;;
13218;SDS011;6674;49.152;11.918;2022-08-19T13:55:30;10.50;;;9.70;;
13218;SDS011;6674;49.152;11.918;2022-08-19T13:57:59;8.83;;;8.13;;
13218;SDS011;6674;49.152;11.918;2022-08-19T14:00:28;8.87;;;8.23;;
13218;SDS011;6674;49.152;11.918;2022-08-19T14:02:58;9.33;;;8.73;;
13218;SDS011;6674;49.152;11.918;2022-08-19T14:05:25;8.47;;;7.87;;
13218;SDS011;6674;49.152;11.918;2022-08-19T14:07:53;8.60;;;7.90;;
13218;SDS011;6674;49.152;11.918;2022-08-19T14:10:20;8.17;;;7.57;;
13218;SDS011;6674;49.152;11.918;2022-08-19T14:12:48;9.60;;;8.80;;
13218;SDS011;6674;49.152;11.918;2022-08-19T14:15:16;10.37;;;9.57;;
13218;SDS011;6674;49.152;11.918;2022-08-19T14:17:43;7.77;;;7.17;;
13218;SDS011;6674;49.152;11.918;2022-08-19T14:20:12;8.40;;;7.80;;
13218;SDS011;6674;49.152;11.918;2022-08-19T14:22:41;10.07;;;9.27;;
13218;SDS011;6674;49.152;11.918;2022-08-19T14:25:09;9.83;;;9.03;;
13218;SDS011;6674;49.152;11.918;2022-08-19T14:27:39;9.13;;;8.27;;
13218;SDS011;6674;49.152;11.918;2022-08-19T14:30:07;10.80;;;9.80;;
13218;SDS011;6674;49.152;11.918;2022-08-19T14:32:37;9.63;;;8.83;;
13218;SDS011;6674;49.152;11.918;2022-08-19T14:35:04;11.77;;;10.83;;
13218;SDS011;6674;49.152;11.918;2022-08-19T14:37:33;9.90;;;9.10;;
13218;SDS011;6674;49.152;11.918;2022-08-19T14:40:00;11.60;;;10.70;;